Time;durP1;ratioP1;P1;durP2;ratioP2;P2;SDS_P1;SDS_P2;PMS_P1;PMS_P2;Temp;Humidity;BMP_temperature;BMP_pressure;BME280_temperature;BME280_humidity;BME280_pressure;Samples;Min_cycle;Max_cycle;Signal;HPM_P1;HPM_P2
2022/07/23 00:00:32;;;;;;;5.55;3.08;;;;;;;18.30;81.87;101750.31;5122689;28;20082;-48
2022/07/23 00:03:06;;;;;;;6.28;3.60;;;;;;;18.21;82.07;101752.09;5131415;28;20084;-51
2022/07/23 00:05:34;;;;;;;6.40;3.60;;;;;;;18.09;82.89;101748.94;5108278;28;20110;-54
2022/07/23 00:08:04;;;;;;;7.70;3.53;;;;;;;18.07;83.38;101751.16;5125237;28;20478;-56
2022/07/23 00:10:36;;;;;;;6.57;3.38;;;;;;;18.07;83.31;101742.91;5130144;28;20035;-50
2022/07/23 00:13:03;;;;;;;8.25;3.50;;;;;;;18.12;83.24;101744.75;5134011;27;20047;-51
2022/07/23 00:15:31;;;;;;;6.25;3.22;;;;;;;18.14;82.81;101746.09;5120998;27;20044;-52
2022/07/23 00:17:59;;;;;;;8.55;3.70;;;;;;;18.12;82.77;101753.03;5126834;27;20066;-53
2022/07/23 00:20:26;;;;;;;7.03;3.30;;;;;;;18.05;83.47;101753.41;5128784;27;20044;-51
2022/07/23 00:22:55;;;;;;;5.82;3.10;;;;;;;18.08;83.40;101753.59;5119321;27;20047;-53
2022/07/23 00:25:24;;;;;;;8.07;3.15;;;;;;;18.10;83.00;101748.63;5135562;27;20409;-56
2022/07/23 00:27:58;;;;;;;6.43;3.28;;;;;;;18.10;82.88;101748.63;5117778;27;20048;-55
2022/07/23 00:30:26;;;;;;;5.82;3.17;;;;;;;18.12;82.65;101753.03;5111437;27;20070;-57
2022/07/23 00:32:56;;;;;;;5.95;2.90;;;;;;;18.14;82.42;101750.81;5124201;27;20126;-55
2022/07/23 00:35:30;;;;;;;5.43;2.90;;;;;;;18.13;82.31;101744.44;5118063;27;20037;-56
2022/07/23 00:37:58;;;;;;;6.00;3.10;;;;;;;18.04;82.62;101738.78;5118098;27;20035;-56
2022/07/23 00:40:26;;;;;;;4.93;2.60;;;;;;;18.04;82.51;101746.25;5129735;27;20411;-56
2022/07/23 00:42:54;;;;;;;4.90;2.70;;;;;;;18.02;82.61;101732.75;5095607;28;20150;-53
2022/07/23 00:45:22;;;;;;;5.78;2.80;;;;;;;18.00;83.05;101743.25;5127238;27;20123;-54
2022/07/23 00:47:49;;;;;;;5.63;2.90;;;;;;;18.02;83.11;101740.22;5119365;27;20517;-55
2022/07/23 00:50:17;;;;;;;5.45;2.78;;;;;;;18.03;82.44;101741.84;5108725;27;20031;-53
2022/07/23 00:52:45;;;;;;;6.47;3.10;;;;;;;17.97;82.78;101746.59;5107295;27;20067;-52
2022/07/23 00:55:13;;;;;;;4.78;2.65;;;;;;;17.91;83.06;101736.75;5128978;27;20067;-53
2022/07/23 00:57:41;;;;;;;6.57;2.97;;;;;;;17.86;83.16;101732.13;5127110;27;20047;-55
2022/07/23 01:00:12;;;;;;;8.00;3.20;;;;;;;17.83;83.46;101738.22;5123720;27;20468;-55
2022/07/23 01:02:40;;;;;;;6.90;3.28;;;;;;;17.77;83.38;101742.13;5127747;27;20035;-55
2022/07/23 01:05:09;;;;;;;5.82;2.90;;;;;;;17.72;84.27;101742.19;5085393;27;20051;-55
2022/07/23 01:07:37;;;;;;;4.93;3.00;;;;;;;17.79;83.92;101733.56;5117423;27;20043;-53
2022/07/23 01:10:30;;;;;;;4.65;2.53;;;;;;;17.85;83.40;101733.25;5116107;27;20036;-55
2022/07/23 01:12:53;;;;;;;5.63;2.95;;;;;;;17.85;83.11;101733.25;5111675;28;20044;-55
2022/07/23 01:15:22;;;;;;;4.93;2.72;;;;;;;17.85;82.42;101726.91;5111824;27;20409;-58
2022/07/23 01:17:50;;;;;;;6.53;3.00;;;;;;;17.78;83.10;101727.22;5136307;27;20055;-57
2022/07/23 01:20:18;;;;;;;7.00;2.72;;;;;;;17.72;83.04;101733.91;5101803;27;20046;-53
2022/07/23 01:22:45;;;;;;;7.03;2.85;;;;;;;17.68;83.56;101732.88;5110504;27;20040;-56
2022/07/23 01:25:14;;;;;;;6.60;3.30;;;;;;;17.66;83.49;101727.66;5104616;27;20506;-53
2022/07/23 01:27:54;;;;;;;7.68;3.28;;;;;;;17.65;83.64;101730.69;5088767;28;20059;-57
2022/07/23 01:30:23;;;;;;;6.15;3.42;;;;;;;17.65;83.91;101726.03;5091369;27;20071;-55
2022/07/23 01:32:51;;;;;;;7.03;3.08;;;;;;;17.67;83.75;101725.72;5112056;27;20050;-54
2022/07/23 01:35:19;;;;;;;6.85;3.20;;;;;;;17.70;83.53;101727.88;5111543;27;20039;-56
2022/07/23 01:37:49;;;;;;;3.80;2.70;;;;;;;17.71;83.25;101726.78;5121383;27;20103;-57
2022/07/23 01:40:17;;;;;;;5.53;2.85;;;;;;;17.74;83.02;101720.66;5108396;27;20077;-57
2022/07/23 01:42:47;;;;;;;5.20;2.80;;;;;;;17.73;82.80;101719.03;5102920;27;20042;-56
2022/07/23 01:45:16;;;;;;;4.38;2.90;;;;;;;17.73;82.70;101718.22;5100054;27;20065;-58
2022/07/23 01:47:49;;;;;;;5.20;2.90;;;;;;;17.66;82.58;101718.56;5102600;27;20118;-55
2022/07/23 01:50:17;;;;;;;6.57;3.50;;;;;;;17.58;83.06;101721.94;5090131;28;20118;-55
2022/07/23 01:53:03;;;;;;;5.60;3.03;;;;;;;17.56;83.64;101719.50;5115927;27;20047;-55
2022/07/23 01:55:30;;;;;;;6.60;3.00;;;;;;;17.59;83.45;101723.59;5098402;27;20393;-57
2022/07/23 01:57:58;;;;;;;7.03;3.03;;;;;;;17.58;82.94;101721.94;5098776;27;20067;-57
2022/07/23 02:00:29;;;;;;;9.00;3.38;;;;;;;17.55;82.82;101725.31;5113252;28;20035;-55
2022/07/23 02:02:58;;;;;;;7.18;3.38;;;;;;;17.46;82.75;101725.97;5113082;27;20036;-54
2022/07/23 02:05:31;;;;;;;7.40;3.45;;;;;;;17.38;83.53;101728.50;5094967;28;20459;-52
2022/07/23 02:08:00;;;;;;;8.02;3.20;;;;;;;17.26;83.72;101731.66;5116599;27;20050;-53
2022/07/23 02:10:28;;;;;;;11.10;3.42;;;;;;;17.11;84.92;101724.38;5093620;28;20500;-54
2022/07/23 02:12:55;;;;;;;5.72;3.00;;;;;;;17.15;85.86;101724.59;5129615;27;20040;-50
2022/07/23 02:15:23;;;;;;;8.15;3.38;;;;;;;17.20;84.91;101710.81;5101600;27;20070;-52
2022/07/23 02:17:51;;;;;;;6.45;3.13;;;;;;;17.25;84.60;101713.50;5105877;27;20043;-48
2022/07/23 02:20:19;;;;;;;5.43;2.92;;;;;;;17.24;84.22;101706.34;5107572;27;20504;-51
2022/07/23 02:22:46;;;;;;;6.20;3.38;;;;;;;17.21;84.39;101706.94;5107497;27;20046;-53
2022/07/23 02:25:14;;;;;;;8.55;3.33;;;;;;;17.13;84.53;101715.84;5120678;27;20040;-52
2022/07/23 02:27:42;;;;;;;9.73;3.30;;;;;;;17.07;84.77;101715.03;5107020;27;20059;-53
2022/07/23 02:30:11;;;;;;;5.57;3.17;;;;;;;17.00;85.68;101717.31;5105053;28;20079;-51
2022/07/23 02:32:39;;;;;;;5.97;3.10;;;;;;;16.99;85.71;101719.25;5118836;27;20031;-54
2022/07/23 02:35:10;;;;;;;6.25;3.10;;;;;;;16.97;85.33;101712.41;5100169;28;20074;-55
2022/07/23 02:37:37;;;;;;;5.93;3.20;;;;;;;16.99;85.55;101710.19;5107199;28;20111;-55
2022/07/23 02:40:06;;;;;;;9.00;3.35;;;;;;;16.99;85.68;101705.50;5105997;28;20469;-55
2022/07/23 02:42:36;;;;;;;5.82;3.38;;;;;;;17.03;86.07;101708.50;5111104;27;20032;-51
2022/07/23 02:45:05;;;;;;;6.03;3.20;;;;;;;17.11;85.93;101707.03;5079347;28;20036;-53
2022/07/23 02:47:33;;;;;;;7.82;3.78;;;;;;;17.15;85.24;101716.34;5100476;27;20457;-50
2022/07/23 02:50:01;;;;;;;6.18;3.22;;;;;;;17.17;84.79;101719.63;5086503;28;20049;-53
2022/07/23 02:52:30;;;;;;;8.73;3.20;;;;;;;17.16;84.39;101715.25;5101409;28;20130;-52
2022/07/23 02:54:57;;;;;;;4.78;3.05;;;;;;;17.15;84.83;101719.09;5103963;27;20042;-52
2022/07/23 02:57:25;;;;;;;6.93;3.30;;;;;;;17.16;84.29;101721.56;5109182;27;20444;-53
2022/07/23 02:59:52;;;;;;;6.38;3.35;;;;;;;17.16;84.49;101726.25;5096955;27;20043;-55
2022/07/23 03:02:20;;;;;;;7.93;3.22;;;;;;;17.13;84.38;101724.09;5130502;27;20039;-55
2022/07/23 03:04:49;;;;;;;11.30;3.40;;;;;;;17.08;84.52;101724.97;5116121;27;20043;-54
2022/07/23 03:07:17;;;;;;;11.93;3.33;;;;;;;17.04;85.25;101735.72;5115988;28;20043;-54
2022/07/23 03:09:45;;;;;;;7.55;3.38;;;;;;;17.03;84.96;101734.09;5098979;28;20039;-54
2022/07/23 03:12:13;;;;;;;7.88;3.50;;;;;;;17.02;84.99;101728.88;5125520;27;20635;-55
2022/07/23 03:14:42;;;;;;;6.55;3.15;;;;;;;17.01;85.21;101730.81;5095785;28;20057;-53
2022/07/23 03:17:10;;;;;;;7.15;3.67;;;;;;;17.02;84.84;101737.13;5110390;28;20074;-54
2022/07/23 03:19:38;;;;;;;5.38;3.15;;;;;;;17.01;84.56;101733.56;5111198;28;20569;-55
2022/07/23 03:22:07;;;;;;;8.82;3.35;;;;;;;16.98;85.18;101742.41;5115891;28;20093;-54
2022/07/23 03:24:53;;;;;;;6.15;3.35;;;;;;;16.97;85.06;101740.75;5125342;28;20529;-52
2022/07/23 03:27:25;;;;;;;11.73;3.72;;;;;;;16.97;84.74;101746.25;5101371;28;20088;-54
2022/07/23 03:29:56;;;;;;;8.55;3.45;;;;;;;16.92;84.74;101749.03;5091102;28;20086;-52
2022/07/23 03:32:24;;;;;;;6.38;3.35;;;;;;;16.90;85.18;101733.94;5128216;28;20066;-53
2022/07/23 03:34:52;;;;;;;6.55;3.45;;;;;;;16.88;85.13;101741.66;5125534;28;20047;-54
2022/07/23 03:37:20;;;;;;;6.75;3.50;;;;;;;16.85;85.36;101736.72;5088091;28;20502;-53
2022/07/23 03:39:48;;;;;;;6.78;3.50;;;;;;;16.78;85.50;101739.78;5104979;28;20039;-55
2022/07/23 03:42:16;;;;;;;7.32;3.70;;;;;;;16.72;85.75;101732.69;5087085;28;20466;-57
2022/07/23 03:44:46;;;;;;;7.82;3.20;;;;;;;16.68;86.63;101743.44;5129862;28;20031;-56
2022/07/23 03:47:14;;;;;;;9.85;3.90;;;;;;;16.70;86.58;101740.41;5134235;27;20050;-55
2022/07/23 03:49:42;;;;;;;7.25;3.45;;;;;;;16.76;86.35;101748.34;5114016;27;20526;-54
2022/07/23 03:52:10;;;;;;;5.57;3.45;;;;;;;16.77;86.10;101747.22;5119491;27;20078;-54
2022/07/23 03:54:38;;;;;;;9.05;3.80;;;;;;;16.77;86.58;101743.66;5101397;27;20504;-52
2022/07/23 03:57:05;;;;;;;8.48;3.63;;;;;;;16.76;86.43;101739.22;5119470;27;20123;-55
2022/07/23 03:59:33;;;;;;;5.88;3.70;;;;;;;16.79;85.95;101749.72;5098445;27;20059;-55
2022/07/23 04:02:01;;;;;;;9.60;3.88;;;;;;;16.76;85.98;101739.22;5115593;27;20032;-55
2022/07/23 04:04:29;;;;;;;8.07;3.30;;;;;;;16.72;86.39;101736.25;5111511;27;20047;-56
2022/07/23 04:06:57;;;;;;;8.48;3.50;;;;;;;16.73;86.26;101739.81;5100858;28;20048;-56
2022/07/23 04:09:25;;;;;;;7.45;3.50;;;;;;;16.74;86.55;101741.44;5109636;27;20058;-55
2022/07/23 04:11:53;;;;;;;8.63;3.95;;;;;;;16.77;86.19;101749.16;5135818;27;20044;-57
2022/07/23 04:14:21;;;;;;;6.97;3.55;;;;;;;16.72;85.83;101738.19;5136622;27;20035;-56
2022/07/23 04:16:49;;;;;;;7.05;3.53;;;;;;;16.66;86.41;101750.34;5112628;27;20035;-57
2022/07/23 04:19:16;;;;;;;5.97;3.65;;;;;;;16.68;86.93;101746.19;5106503;27;20404;-55
2022/07/23 04:21:59;;;;;;;7.05;3.55;;;;;;;16.72;86.51;101754.69;5106079;27;20055;-57
2022/07/23 04:24:27;;;;;;;7.60;3.63;;;;;;;16.74;86.44;101753.31;5117342;27;20035;-57
2022/07/23 04:26:54;;;;;;;6.13;3.95;;;;;;;16.77;86.07;101755.47;5107883;27;20031;-56
2022/07/23 04:29:22;;;;;;;7.50;3.63;;;;;;;16.79;85.72;101755.22;5100440;28;20104;-52
2022/07/23 04:31:50;;;;;;;7.05;3.60;;;;;;;16.76;86.07;101750.25;5110940;27;20062;-56
2022/07/23 04:34:18;;;;;;;7.30;3.95;;;;;;;16.72;86.23;101757.44;5104898;27;20110;-56
2022/07/23 04:36:46;;;;;;;5.18;3.15;;;;;;;16.70;86.59;101762.41;5098378;27;20051;-55
2022/07/23 04:39:14;;;;;;;6.05;3.50;;;;;;;16.71;86.65;101759.34;5109807;27;20075;-54
2022/07/23 04:41:42;;;;;;;7.03;3.22;;;;;;;16.72;86.39;101765.72;5116745;27;20112;-54
2022/07/23 04:44:10;;;;;;;7.47;3.42;;;;;;;16.76;85.96;101764.84;5101632;27;20031;-50
2022/07/23 04:46:37;;;;;;;5.75;3.67;;;;;;;16.77;86.01;101762.91;5090203;27;20071;-52
2022/07/23 04:49:07;;;;;;;5.25;3.13;;;;;;;16.77;86.66;101765.66;5114303;27;20035;-53
2022/07/23 04:51:35;;;;;;;6.20;3.55;;;;;;;16.81;86.27;101766.75;5118467;27;20126;-50
2022/07/23 04:54:03;;;;;;;5.28;3.15;;;;;;;16.85;85.96;101767.81;5105488;27;20047;-50
2022/07/23 04:56:32;;;;;;;5.10;3.42;;;;;;;16.90;86.00;101776.03;5118236;27;20047;-51
2022/07/23 04:59:00;;;;;;;9.45;3.47;;;;;;;16.95;85.41;101775.19;5122850;27;20043;-51
2022/07/23 05:01:28;;;;;;;5.18;3.40;;;;;;;16.99;85.68;101781.75;5100875;27;20068;-51
2022/07/23 05:03:56;;;;;;;6.97;3.30;;;;;;;17.03;85.22;101780.09;5122881;27;20536;-53
2022/07/23 05:06:30;;;;;;;8.93;3.60;;;;;;;17.07;85.08;101772.06;5105169;28;20051;-48
2022/07/23 05:08:58;;;;;;;6.07;3.53;;;;;;;17.11;84.93;101773.13;5109290;28;20046;-52
2022/07/23 05:11:26;;;;;;;5.60;3.33;;;;;;;17.11;84.70;101779.44;5134544;27;20039;-52
2022/07/23 05:13:54;;;;;;;6.38;3.15;;;;;;;17.11;85.08;101778.63;5135747;27;20036;-51
2022/07/23 05:16:23;;;;;;;7.82;3.67;;;;;;;17.13;84.76;101788.25;5117331;27;20301;-53
2022/07/23 05:18:53;;;;;;;5.20;3.25;;;;;;;17.17;84.49;101780.22;5114396;27;20043;-54
2022/07/23 05:21:21;;;;;;;7.30;3.90;;;;;;;17.17;84.51;101778.31;5113473;27;20043;-57
2022/07/23 05:23:49;;;;;;;6.53;3.38;;;;;;;17.21;84.29;101784.06;5117399;27;20047;-52
2022/07/23 05:26:16;;;;;;;7.75;3.88;;;;;;;17.22;84.57;101785.69;5135891;27;20134;-51
2022/07/23 05:28:44;;;;;;;5.82;3.30;;;;;;;17.19;84.80;101786.25;5115971;27;20085;-51
2022/07/23 05:31:17;;;;;;;8.23;3.92;;;;;;;17.18;84.59;101790.97;5099308;28;20112;-51
2022/07/23 05:33:47;;;;;;;7.97;3.88;;;;;;;17.12;84.96;101794.03;5111510;27;20507;-53
2022/07/23 05:36:14;;;;;;;7.38;4.28;;;;;;;16.97;86.10;101798.56;5117014;27;20074;-53
2022/07/23 05:38:56;;;;;;;8.15;4.28;;;;;;;16.98;85.90;101800.22;5097711;27;20127;-50
2022/07/23 05:41:27;;;;;;;6.82;3.92;;;;;;;16.99;86.11;101806.53;5105706;27;20092;-50
2022/07/23 05:43:54;;;;;;;8.20;4.00;;;;;;;17.01;85.98;101805.16;5097950;27;20516;-52
2022/07/23 05:46:22;;;;;;;9.20;4.45;;;;;;;17.07;85.93;101802.34;5115656;27;20061;-51
2022/07/23 05:48:55;;;;;;;6.95;4.30;;;;;;;17.07;85.77;101799.59;5117147;27;20051;-50
2022/07/23 05:51:41;;;;;;;;;;;;;;;17.06;85.57;101803.47;5123987;27;20428;-49
2022/07/23 05:54:13;;;;;;;9.27;4.57;;;;;;;16.93;86.28;101810.44;5113879;28;19931;-52
2022/07/23 05:56:41;;;;;;;6.68;4.63;;;;;;;16.91;86.66;101813.50;5108871;27;20035;-53
2022/07/23 05:59:09;;;;;;;8.60;4.40;;;;;;;16.96;86.46;101818.13;5116856;27;20088;-55
2022/07/23 06:01:36;;;;;;;10.40;4.43;;;;;;;16.92;86.60;101820.63;5076471;27;20089;-56
2022/07/23 06:04:08;;;;;;;9.20;4.03;;;;;;;16.94;86.63;101818.41;5115621;27;20035;-55
2022/07/23 06:06:39;;;;;;;6.45;4.22;;;;;;;17.02;87.18;101823.28;5116251;27;20051;-49
2022/07/23 06:09:10;;;;;;;8.10;5.05;;;;;;;17.02;87.28;101823.28;5114470;27;20062;-52
2022/07/23 06:11:38;;;;;;;10.95;4.90;;;;;;;17.02;87.00;101827.97;5113679;27;20039;-50
2022/07/23 06:14:07;;;;;;;8.05;4.30;;;;;;;17.01;86.81;101827.16;5119627;27;20042;-53
2022/07/23 06:16:55;;;;;;;7.18;3.63;;;;;;;17.05;87.35;101821.91;5086798;28;20089;-50
2022/07/23 06:19:24;;;;;;;9.35;4.03;;;;;;;17.12;87.14;101819.63;5115330;27;20054;-51
2022/07/23 06:21:52;;;;;;;8.02;4.28;;;;;;;17.18;86.51;101820.44;5111124;27;20572;-53
2022/07/23 06:24:20;;;;;;;6.82;4.15;;;;;;;17.22;85.67;101830.59;5103812;28;20040;-50
2022/07/23 06:26:49;;;;;;;9.68;4.20;;;;;;;17.26;85.13;101825.31;5116260;27;20043;-54
2022/07/23 06:29:16;;;;;;;9.77;4.35;;;;;;;17.27;83.48;101831.63;5113322;27;20073;-54
2022/07/23 06:31:44;;;;;;;12.00;4.20;;;;;;;17.22;83.49;101827.84;5101925;27;20048;-56
2022/07/23 06:34:14;;;;;;;8.65;4.00;;;;;;;17.23;83.44;101831.41;5114725;27;20064;-56
2022/07/23 06:36:41;;;;;;;10.73;3.75;;;;;;;17.21;83.50;101828.94;5134567;27;20035;-56
2022/07/23 06:39:09;;;;;;;8.50;4.18;;;;;;;17.21;83.42;101834.44;5133135;27;20531;-54
2022/07/23 06:41:37;;;;;;;7.45;3.92;;;;;;;17.18;84.12;101831.47;5115863;27;20477;-54
2022/07/23 06:44:05;;;;;;;6.20;3.92;;;;;;;17.19;84.68;101836.66;5113994;27;20067;-54
2022/07/23 06:46:35;;;;;;;8.95;3.90;;;;;;;17.21;84.31;101839.13;5110961;27;20042;-53
2022/07/23 06:49:04;;;;;;;7.55;3.55;;;;;;;17.21;84.86;101833.63;5115363;27;20126;-54
2022/07/23 06:51:33;;;;;;;11.20;4.43;;;;;;;17.25;85.66;101845.72;5134244;27;20546;-55
2022/07/23 06:54:01;;;;;;;5.57;3.67;;;;;;;17.29;85.65;101843.19;5116376;27;20046;-53
2022/07/23 06:56:29;;;;;;;6.50;4.00;;;;;;;17.31;85.31;101833.53;5114189;27;20047;-52
2022/07/23 06:58:57;;;;;;;5.63;3.28;;;;;;;17.35;84.97;101839.31;5103773;28;20036;-56
2022/07/23 07:01:28;;;;;;;7.25;3.55;;;;;;;17.36;84.79;101839.00;5064188;28;20047;-52
2022/07/23 07:03:56;;;;;;;10.07;3.95;;;;;;;17.38;84.77;101833.22;5127467;27;20039;-51
2022/07/23 07:06:24;;;;;;;8.60;3.35;;;;;;;17.44;83.32;101838.38;5119753;27;20062;-50
2022/07/23 07:08:52;;;;;;;5.30;2.70;;;;;;;17.49;81.30;101842.22;5111486;27;20074;-50
2022/07/23 07:11:19;;;;;;;7.63;2.70;;;;;;;17.53;80.41;101840.50;5131484;27;20042;-51
2022/07/23 07:13:47;;;;;;;3.47;2.45;;;;;;;17.55;80.22;101844.59;5133415;27;20072;-53
2022/07/23 07:16:14;;;;;;;5.72;2.80;;;;;;;17.58;80.08;101838.53;5102894;28;20043;-49
2022/07/23 07:18:42;;;;;;;8.43;2.75;;;;;;;17.62;79.37;101844.28;5125536;28;20042;-50
2022/07/23 07:21:10;;;;;;;4.35;2.50;;;;;;;17.63;79.51;101840.41;5114875;28;20415;-52
2022/07/23 07:23:38;;;;;;;4.75;2.30;;;;;;;17.65;78.82;101832.66;5132800;27;20035;-51
2022/07/23 07:26:05;;;;;;;5.05;2.60;;;;;;;17.70;79.49;101840.88;5130534;28;20039;-50
2022/07/23 07:28:33;;;;;;;7.32;3.22;;;;;;;17.73;79.15;101845.00;5111456;28;20047;-54
2022/07/23 07:31:01;;;;;;;4.03;2.50;;;;;;;17.74;79.08;101830.91;5132798;28;20035;-56
2022/07/23 07:33:30;;;;;;;5.22;2.63;;;;;;;17.79;78.38;101833.63;5114937;28;20027;-52
2022/07/23 07:35:58;;;;;;;5.85;2.88;;;;;;;17.85;77.60;101832.50;5129560;28;20085;-50
2022/07/23 07:38:25;;;;;;;3.78;2.15;;;;;;;17.90;76.68;101828.88;5125503;28;20401;-54
2022/07/23 07:40:53;;;;;;;5.55;2.20;;;;;;;17.94;76.74;101829.09;5133269;28;20493;-53
2022/07/23 07:43:21;;;;;;;2.65;2.10;;;;;;;18.02;77.42;101831.22;5115027;28;20066;-55
2022/07/23 07:45:48;;;;;;;4.57;2.05;;;;;;;18.10;76.55;101838.81;5113500;28;20035;-52
2022/07/23 07:48:16;;;;;;;7.05;2.47;;;;;;;18.14;75.68;101850.94;5131284;28;20456;-57
2022/07/23 07:50:44;;;;;;;7.25;2.40;;;;;;;18.16;75.67;101848.69;5124144;28;20035;-52
2022/07/23 07:53:13;;;;;;;5.28;2.35;;;;;;;18.16;75.35;101853.38;5133204;28;20055;-53
2022/07/23 07:55:40;;;;;;;6.53;2.80;;;;;;;18.14;75.21;101850.09;5131721;28;20036;-50
2022/07/23 07:58:08;;;;;;;4.30;2.47;;;;;;;18.12;75.18;101852.34;5120770;28;20043;-50
2022/07/23 08:00:36;;;;;;;4.63;2.40;;;;;;;18.14;75.66;101856.44;5120456;28;20051;-52
2022/07/23 08:03:04;;;;;;;6.85;2.63;;;;;;;18.16;75.01;101853.38;5133402;28;20047;-53
2022/07/23 08:05:32;;;;;;;7.45;3.30;;;;;;;18.18;75.77;101851.97;5119122;28;20051;-51
2022/07/23 08:08:00;;;;;;;8.15;2.80;;;;;;;18.23;75.16;101862.13;5111993;28;20050;-47
2022/07/23 08:10:28;;;;;;;6.97;2.90;;;;;;;18.28;75.21;101853.78;5118312;28;20485;-47
2022/07/23 08:12:57;;;;;;;5.55;2.55;;;;;;;18.34;74.56;101849.84;5133612;28;20046;-52
2022/07/23 08:15:26;;;;;;;6.88;3.00;;;;;;;18.38;74.01;101856.41;5113005;28;20039;-54
2022/07/23 08:17:54;;;;;;;7.65;2.90;;;;;;;18.39;73.41;101852.53;5129580;28;20046;-53
2022/07/23 08:20:23;;;;;;;4.20;2.70;;;;;;;18.41;74.14;101860.53;5114968;28;20074;-54
2022/07/23 08:22:59;;;;;;;5.93;2.78;;;;;;;18.43;73.92;101861.06;5133494;28;20042;-55
2022/07/23 08:25:38;;;;;;;5.55;2.67;;;;;;;18.44;73.84;101863.50;5130277;28;20063;-56
2022/07/23 08:28:08;;;;;;;4.75;2.65;;;;;;;18.47;74.25;101864.84;5121932;28;20040;-50
2022/07/23 08:30:37;;;;;;;4.43;2.60;;;;;;;18.49;73.67;101862.63;5129288;28;20489;-53
2022/07/23 08:33:13;;;;;;;7.50;2.83;;;;;;;18.52;72.92;101867.56;5115049;27;20092;-49
2022/07/23 08:36:02;;;;;;;;;;;;;;;18.55;72.71;101871.66;5132618;27;20038;-49
2022/07/23 08:38:31;;;;;;;6.75;2.95;;;;;;;18.57;72.20;101869.41;5119725;27;19973;-52
2022/07/23 08:40:59;;;;;;;4.30;2.42;;;;;;;18.58;71.94;101865.53;5116350;27;20496;-53
2022/07/23 08:43:29;;;;;;;7.32;2.80;;;;;;;18.63;72.14;101876.50;5118218;27;20126;-48
2022/07/23 08:45:58;;;;;;;9.07;3.95;;;;;;;18.69;72.05;101875.34;5133370;27;20451;-51
2022/07/23 08:48:30;;;;;;;9.98;6.25;;;;;;;18.72;72.55;101878.31;5126196;27;20031;-52
2022/07/23 08:51:00;;;;;;;8.13;3.80;;;;;;;18.80;72.44;101878.78;5117850;27;20044;-51
2022/07/23 08:53:29;;;;;;;20.52;6.47;;;;;;;18.84;71.59;101875.16;5106605;27;20039;-51
2022/07/23 08:56:01;;;;;;;17.27;5.28;;;;;;;18.86;71.65;101877.63;5130490;27;20069;-52
2022/07/23 08:58:30;;;;;;;18.98;5.93;;;;;;;18.90;71.53;101878.66;5127107;27;20039;-53
2022/07/23 09:00:58;;;;;;;13.57;4.47;;;;;;;18.98;71.05;101879.91;5107255;28;20044;-54
2022/07/23 09:03:28;;;;;;;7.78;3.35;;;;;;;19.03;70.92;101877.91;5133190;27;20088;-53
2022/07/23 09:05:57;;;;;;;9.63;3.30;;;;;;;19.08;70.85;101883.34;5131737;27;20048;-52
2022/07/23 09:08:39;;;;;;;9.68;3.13;;;;;;;19.08;70.93;101886.13;5101145;27;20069;-52
2022/07/23 09:11:09;;;;;;;8.57;3.03;;;;;;;19.09;70.62;101882.22;5103067;28;20115;-49
2022/07/23 09:13:52;;;;;;;6.10;3.10;;;;;;;19.08;69.84;101879.78;5132627;27;20039;-50
2022/07/23 09:16:24;;;;;;;6.95;3.08;;;;;;;19.05;69.93;101881.19;5133383;27;20028;-50
2022/07/23 09:19:03;;;;;;;7.28;3.00;;;;;;;19.05;70.32;101883.97;5118600;27;20047;-50
2022/07/23 09:21:38;;;;;;;5.60;2.92;;;;;;;19.07;70.17;101878.97;5123693;27;20044;-51
2022/07/23 09:24:11;;;;;;;6.32;2.92;;;;;;;19.10;69.69;101872.00;5116167;27;20035;-51
2022/07/23 09:26:49;;;;;;;6.03;3.05;;;;;;;19.13;69.76;101866.69;5104092;28;20044;-51
2022/07/23 09:29:25;;;;;;;9.07;3.10;;;;;;;19.18;69.77;101868.56;5112648;28;20044;-49
2022/07/23 09:31:56;;;;;;;7.32;3.03;;;;;;;19.23;69.27;101864.91;5103942;27;20040;-51
2022/07/23 09:34:27;;;;;;;5.22;2.53;;;;;;;19.29;68.96;101863.66;5131551;27;20129;-48
2022/07/23 09:36:57;;;;;;;6.18;2.80;;;;;;;19.35;68.77;101870.75;5127212;27;20490;-52
2022/07/23 09:39:31;;;;;;;5.53;2.83;;;;;;;19.36;69.21;101866.88;5120099;27;20127;-51
2022/07/23 09:42:13;;;;;;;6.93;2.90;;;;;;;19.36;68.75;101869.63;5080172;28;20039;-51
2022/07/23 09:44:43;;;;;;;3.75;2.55;;;;;;;19.37;69.05;101874.06;5121348;27;20056;-51
2022/07/23 09:47:11;;;;;;;6.90;2.90;;;;;;;19.39;68.70;101869.06;5097328;27;20047;-51
2022/07/23 09:49:38;;;;;;;5.95;2.70;;;;;;;19.40;68.88;101876.22;5107013;27;20043;-51
2022/07/23 09:52:06;;;;;;;4.80;2.70;;;;;;;19.44;68.88;101870.91;5131196;27;20064;-52
2022/07/23 09:54:35;;;;;;;3.50;2.40;;;;;;;19.49;69.19;101873.59;5120528;27;20046;-54
2022/07/23 09:57:10;;;;;;;5.22;2.50;;;;;;;19.53;69.07;101867.16;5104023;27;20039;-54
2022/07/23 09:59:39;;;;;;;5.77;2.73;;;;;;;19.62;68.54;101869.19;5106748;27;20043;-51
2022/07/23 10:02:09;;;;;;;3.83;2.10;;;;;;;19.66;68.67;101873.81;5114531;27;20045;-53
2022/07/23 10:04:54;;;;;;;5.30;2.60;;;;;;;19.72;67.90;101871.81;5102532;27;20039;-49
2022/07/23 10:07:38;;;;;;;4.03;2.58;;;;;;;19.75;67.20;101872.03;5090828;28;20578;-48
2022/07/23 10:10:28;;;;;;;6.93;3.30;;;;;;;19.79;66.84;101869.47;5079678;28;20394;-53
2022/07/23 10:16:02;;;;;;;4.97;2.72;;;;;;;19.88;65.51;101864.06;5091615;28;20115;-52
2022/07/23 10:18:30;;;;;;;8.52;3.00;;;;;;;19.87;65.46;101863.25;5091268;28;20040;-52
2022/07/23 10:20:59;;;;;;;6.13;2.72;;;;;;;19.88;66.23;101864.06;5085515;28;20071;-52
2022/07/23 10:23:42;;;;;;;5.82;2.53;;;;;;;19.90;65.47;101862.63;5096311;28;20047;-52
2022/07/23 10:26:16;;;;;;;4.20;2.65;;;;;;;19.96;64.76;101866.94;5088014;28;20510;-53
2022/07/23 10:28:47;;;;;;;5.90;2.60;;;;;;;19.98;65.24;101870.19;5088938;28;20075;-54
2022/07/23 10:31:18;;;;;;;5.22;2.80;;;;;;;20.00;65.95;101869.91;5083298;28;20047;-53
2022/07/23 10:34:31;;;;;;;7.15;3.13;;;;;;;20.03;65.61;101872.06;5091112;28;20040;-55
2022/07/23 10:37:07;;;;;;;4.05;2.42;;;;;;;20.07;65.68;101866.75;5077933;28;20051;-51
2022/07/23 10:39:35;;;;;;;5.28;2.50;;;;;;;20.10;65.26;101872.47;5073591;28;20033;-49
2022/07/23 10:42:10;;;;;;;5.22;2.45;;;;;;;20.14;65.91;101867.16;5080256;28;20051;-48
2022/07/23 10:44:45;;;;;;;5.78;2.17;;;;;;;20.16;66.21;101871.25;5092670;28;20051;-51
2022/07/23 10:47:39;;;;;;;5.45;2.33;;;;;;;20.21;65.79;101862.03;5078884;28;20098;-51
2022/07/23 10:50:30;;;;;;;6.55;2.50;;;;;;;20.27;65.53;101866.31;5073009;28;20040;-52
2022/07/23 10:53:11;;;;;;;4.38;2.70;;;;;;;20.34;65.77;101861.19;5083693;28;20079;-52
2022/07/23 10:55:40;;;;;;;5.13;2.75;;;;;;;20.38;65.04;101864.97;5084313;28;20093;-53
2022/07/23 10:58:07;;;;;;;5.78;3.08;;;;;;;20.39;64.97;101863.84;5076822;28;20041;-55
2022/07/23 11:00:37;;;;;;;7.05;2.70;;;;;;;20.41;64.84;101861.59;5074814;28;20137;-50
2022/07/23 11:03:27;;;;;;;4.53;2.85;;;;;;;20.45;64.95;101866.53;5093334;28;20131;-54
2022/07/23 11:05:55;;;;;;;4.53;2.67;;;;;;;20.52;63.74;101866.94;5104963;27;20486;-51
2022/07/23 11:08:22;;;;;;;5.30;2.90;;;;;;;20.56;63.08;101859.66;5089013;27;20042;-53
2022/07/23 11:11:02;;;;;;;4.30;2.45;;;;;;;20.61;64.16;101865.91;5133476;27;20047;-48
2022/07/23 11:13:45;;;;;;;4.90;2.65;;;;;;;20.67;62.96;101866.63;5120541;27;20134;-50
2022/07/23 11:16:21;;;;;;;5.63;3.17;;;;;;;20.71;62.56;101869.56;5113853;27;20117;-49
2022/07/23 11:18:48;;;;;;;6.28;3.10;;;;;;;20.73;62.39;101868.13;5105976;28;20050;-53
2022/07/23 11:21:26;;;;;;;7.03;3.28;;;;;;;20.75;61.86;101874.16;5129225;28;20047;-52
2022/07/23 11:23:57;;;;;;;8.50;4.05;;;;;;;20.78;62.22;101875.50;5121261;28;20123;-51
2022/07/23 11:26:37;;;;;;;8.43;4.25;;;;;;;20.78;62.90;101869.97;5128747;28;20171;-49
2022/07/23 11:29:37;;;;;;;8.63;4.03;;;;;;;20.81;62.24;101869.34;5134135;28;20059;-53
2022/07/23 11:32:23;;;;;;;6.43;4.13;;;;;;;20.87;62.95;101867.28;5131996;28;20035;-52
2022/07/23 11:34:53;;;;;;;5.43;3.58;;;;;;;20.90;62.85;101866.66;5107084;28;20039;-51
2022/07/23 11:37:36;;;;;;;7.43;4.65;;;;;;;20.94;62.92;101856.59;5131459;28;20137;-52
2022/07/23 11:40:12;;;;;;;7.88;4.15;;;;;;;20.93;62.50;101855.78;5103150;28;20127;-52
2022/07/23 11:43:09;;;;;;;11.40;3.97;;;;;;;20.93;62.26;101863.28;5133008;28;20092;-52